createdAt,value
2022-10-11T00:01:52.451Z,69.48
2022-10-11T00:04:22.369Z,69.48
2022-10-11T00:06:49.610Z,69.90
2022-10-11T00:09:18.133Z,70.15
2022-10-11T00:11:45.177Z,69.88
2022-10-11T00:14:12.107Z,69.92
2022-10-11T00:16:39.078Z,70.08
2022-10-11T00:19:06.165Z,70.23
2022-10-11T00:21:33.157Z,70.18
2022-10-11T00:24:00.232Z,70.36
2022-10-11T00:26:27.592Z,70.36
2022-10-11T00:28:54.503Z,70.67
2022-10-11T00:31:21.750Z,71.12
2022-10-11T00:33:48.760Z,70.70
2022-10-11T00:36:15.739Z,70.90
2022-10-11T00:38:43.757Z,71.18
2022-10-11T00:41:10.996Z,71.38
2022-10-11T00:43:38.318Z,71.85
2022-10-11T00:46:19.574Z,71.81
2022-10-11T00:48:50.997Z,71.90
2022-10-11T00:51:44.084Z,72.24
2022-10-11T00:54:15.814Z,72.53
2022-10-11T00:56:46.196Z,72.51
2022-10-11T00:59:18.519Z,72.89
2022-10-11T01:01:45.677Z,72.93
2022-10-11T01:04:13.038Z,72.94
2022-10-11T01:06:40.673Z,73.06
2022-10-11T01:09:07.891Z,73.52
2022-10-11T01:11:38.312Z,73.49
2022-10-11T01:14:14.156Z,73.67
2022-10-11T01:17:02.607Z,74.25
2022-10-11T01:19:52.925Z,74.18
2022-10-11T01:22:38.333Z,74.43
2022-10-11T01:25:31.959Z,74.65
2022-10-11T01:28:33.130Z,74.98
2022-10-11T01:31:30.371Z,74.95
2022-10-11T01:34:34.359Z,74.96
2022-10-11T01:37:23.917Z,75.13
2022-10-11T01:40:08.137Z,75.68
2022-10-11T01:42:38.857Z,75.90
2022-10-11T01:45:09.713Z,76.25
2022-10-11T01:47:36.602Z,76.47
2022-10-11T01:50:04.317Z,76.41
2022-10-11T01:52:34.814Z,76.34
2022-10-11T01:55:23.889Z,76.52
2022-10-11T01:58:11.272Z,76.62
2022-10-11T02:00:58.284Z,77.07
2022-10-11T02:03:39.046Z,77.03
2022-10-11T02:06:10.774Z,76.92
2022-10-11T02:08:55.310Z,77.18
2022-10-11T02:11:29.818Z,77.30
2022-10-11T02:14:02.655Z,77.39
2022-10-11T02:16:37.730Z,77.29
2022-10-11T02:19:07.552Z,77.12
2022-10-11T02:21:38.118Z,77.28
2022-10-11T02:24:19.246Z,77.76
2022-10-11T02:26:50.408Z,77.91
2022-10-11T02:29:18.415Z,77.72
2022-10-11T02:31:46.169Z,77.92
2022-10-11T02:34:32.038Z,78.04
2022-10-11T02:37:22.163Z,78.06
2022-10-11T02:39:55.565Z,77.98
2022-10-11T02:42:33.885Z,77.97
2022-10-11T02:45:07.822Z,78.12
2022-10-11T02:47:35.476Z,77.93
2022-10-11T02:50:03.133Z,78.39
2022-10-11T02:52:29.957Z,78.04
2022-10-11T02:54:57.152Z,78.25
2022-10-11T02:57:24.012Z,78.48
2022-10-11T02:59:50.963Z,78.35
2022-10-11T03:02:18.333Z,78.41
2022-10-11T03:04:45.590Z,78.44
2022-10-11T03:07:12.592Z,78.61
2022-10-11T03:09:39.617Z,78.49
2022-10-11T03:12:07.214Z,78.69
2022-10-11T03:14:34.537Z,78.97
2022-10-11T03:17:23.644Z,78.76
2022-10-11T03:19:48.676Z,79.05
2022-10-11T03:22:17.494Z,78.95
2022-10-11T03:24:44.231Z,79.10
2022-10-11T03:27:11.712Z,79.00
2022-10-11T03:29:38.831Z,79.19
2022-10-11T03:32:06.084Z,79.31
2022-10-11T03:34:33.151Z,79.37
2022-10-11T03:37:00.007Z,79.30
2022-10-11T03:39:26.859Z,79.19
2022-10-11T03:41:53.772Z,79.25
2022-10-11T03:44:21.028Z,79.69
2022-10-11T03:46:47.928Z,79.67
2022-10-11T03:49:14.835Z,79.88
2022-10-11T03:51:41.755Z,80.05
2022-10-11T03:54:08.562Z,80.29
2022-10-11T03:56:35.732Z,80.21
2022-10-11T03:59:02.844Z,80.26
2022-10-11T04:01:29.657Z,80.36
2022-10-11T04:03:57.772Z,80.13
2022-10-11T04:06:24.853Z,80.00
2022-10-11T04:08:51.781Z,79.85
2022-10-11T04:11:18.835Z,79.80
2022-10-11T04:13:45.750Z,79.79
2022-10-11T04:16:12.799Z,79.49
2022-10-11T04:18:39.798Z,79.52
2022-10-11T04:21:07.437Z,79.70
2022-10-11T04:23:37.399Z,79.34
2022-10-11T04:26:07.317Z,79.51
2022-10-11T04:28:35.575Z,79.11
2022-10-11T04:31:02.587Z,78.90
2022-10-11T04:33:29.605Z,79.27
2022-10-11T04:35:57.320Z,79.50
2022-10-11T04:38:24.483Z,79.59
2022-10-11T04:40:51.439Z,79.46
2022-10-11T04:43:18.532Z,79.30
2022-10-11T04:45:45.776Z,79.45
2022-10-11T04:48:12.860Z,79.42
2022-10-11T04:50:39.876Z,79.46
2022-10-11T04:53:06.649Z,79.39
2022-10-11T04:55:33.672Z,79.53
2022-10-11T04:58:00.651Z,79.63
2022-10-11T05:00:27.464Z,79.73
2022-10-11T05:02:54.400Z,79.40
2022-10-11T05:05:21.245Z,79.74
2022-10-11T05:07:48.197Z,79.46
2022-10-11T05:10:15.439Z,79.84
2022-10-11T05:12:42.537Z,79.52
2022-10-11T05:15:09.855Z,79.59
2022-10-11T05:17:36.886Z,79.26
2022-10-11T05:20:04.453Z,79.91
2022-10-11T05:22:31.259Z,79.74
2022-10-11T05:24:58.152Z,79.82
2022-10-11T05:27:25.124Z,79.50
2022-10-11T05:29:51.913Z,79.22
2022-10-11T05:32:18.931Z,79.23
2022-10-11T05:34:45.958Z,78.98
2022-10-11T05:37:12.657Z,78.79
2022-10-11T05:39:39.509Z,78.62
2022-10-11T05:42:09.743Z,78.40
2022-10-11T05:44:36.936Z,77.92
2022-10-11T05:47:04.256Z,77.73
2022-10-11T05:49:31.279Z,77.06
2022-10-11T05:51:58.122Z,77.07
2022-10-11T05:54:25.447Z,76.77
2022-10-11T05:56:52.443Z,76.29
2022-10-11T05:59:19.322Z,76.03
2022-10-11T06:01:46.366Z,75.59
2022-10-11T06:04:13.353Z,75.75
2022-10-11T06:06:40.433Z,75.39
2022-10-11T06:09:07.445Z,74.74
2022-10-11T06:11:34.451Z,75.30
2022-10-11T06:14:01.331Z,75.39
2022-10-11T06:16:28.275Z,75.05
2022-10-11T06:18:56.721Z,74.74
2022-10-11T06:21:24.352Z,74.54
2022-10-11T06:23:52.950Z,74.58
2022-10-11T06:26:21.659Z,75.35
2022-10-11T06:28:48.949Z,75.24
2022-10-11T06:31:16.055Z,74.91
2022-10-11T06:33:43.236Z,75.18
2022-10-11T06:36:12.796Z,75.90
2022-10-11T06:38:44.488Z,76.03
2022-10-11T06:41:25.140Z,75.69
2022-10-11T06:43:52.232Z,75.55
2022-10-11T06:46:20.999Z,75.66
2022-10-11T06:48:48.929Z,75.53
2022-10-11T06:51:18.137Z,75.55
2022-10-11T06:53:53.412Z,75.23
2022-10-11T06:56:20.507Z,74.85
2022-10-11T06:58:47.958Z,74.92
2022-10-11T07:01:16.627Z,74.81
2022-10-11T07:03:43.623Z,74.37
2022-10-11T07:06:13.153Z,73.59
2022-10-11T07:08:40.592Z,73.65
2022-10-11T07:11:11.811Z,73.70
2022-10-11T07:13:39.758Z,74.00
2022-10-11T07:16:10.883Z,74.02
2022-10-11T07:18:38.340Z,74.32
2022-10-11T07:21:12.088Z,74.27
2022-10-11T07:23:39.640Z,74.47
2022-10-11T07:26:08.087Z,74.08
2022-10-11T07:28:36.968Z,74.58
2022-10-11T07:31:07.090Z,73.88
2022-10-11T07:33:34.339Z,74.22
2022-10-11T07:36:01.945Z,74.14
2022-10-11T07:38:28.956Z,74.61
2022-10-11T07:40:55.881Z,74.42
2022-10-11T07:43:23.176Z,74.11
2022-10-11T07:45:52.434Z,74.25
2022-10-11T07:48:20.833Z,73.89
2022-10-11T07:50:48.162Z,73.51
2022-10-11T07:53:15.090Z,73.25
2022-10-11T07:55:41.957Z,73.39
2022-10-11T07:58:10.194Z,73.02
2022-10-11T08:00:37.652Z,73.83
2022-10-11T08:03:06.269Z,73.47
2022-10-11T08:05:34.227Z,72.95
2022-10-11T08:08:01.362Z,72.50
2022-10-11T08:10:28.176Z,73.00
2022-10-11T08:12:55.429Z,72.71
2022-10-11T08:15:22.457Z,71.67
2022-10-11T08:17:49.361Z,71.87
2022-10-11T08:20:16.493Z,72.74
2022-10-11T08:22:43.346Z,71.35
2022-10-11T08:25:10.315Z,71.29
2022-10-11T08:27:37.516Z,71.04
2022-10-11T08:30:05.638Z,70.92
2022-10-11T08:32:32.500Z,70.32
2022-10-11T08:34:59.758Z,69.61
2022-10-11T08:37:26.649Z,70.48
2022-10-11T08:39:53.643Z,70.55
2022-10-11T08:42:36.829Z,68.84
2022-10-11T08:45:12.089Z,69.26
2022-10-11T08:47:43.198Z,69.40
2022-10-11T08:50:19.619Z,69.70
2022-10-11T08:52:52.763Z,69.58
2022-10-11T08:55:24.757Z,68.99
2022-10-11T08:57:54.894Z,69.71
2022-10-11T09:00:23.449Z,69.59
2022-10-11T09:03:29.916Z,69.69
2022-10-11T09:06:18.282Z,69.26
2022-10-11T09:09:06.641Z,69.27
2022-10-11T09:11:52.273Z,69.27
2022-10-11T09:14:39.935Z,68.96
2022-10-11T09:17:34.054Z,68.62
2022-10-11T09:20:34.535Z,69.10
2022-10-11T09:23:13.484Z,67.82
2022-10-11T09:25:47.247Z,67.06
2022-10-11T09:28:35.485Z,67.51
2022-10-11T09:31:02.964Z,67.35
2022-10-11T09:33:32.913Z,67.70
2022-10-11T09:36:01.234Z,66.98
2022-10-11T09:39:15.412Z,67.08
2022-10-11T09:41:56.488Z,66.46
2022-10-11T09:44:27.118Z,66.31
2022-10-11T09:46:56.818Z,66.13
2022-10-11T09:49:31.655Z,65.74
2022-10-11T09:52:02.462Z,64.48
2022-10-11T09:54:47.984Z,65.26
2022-10-11T09:57:27.077Z,64.09
2022-10-11T10:00:01.610Z,63.10
2022-10-11T10:02:29.969Z,62.44
2022-10-11T10:04:58.484Z,60.81
2022-10-11T10:07:26.138Z,59.90
2022-10-11T10:09:53.352Z,59.98
2022-10-11T10:12:24.114Z,60.10
2022-10-11T10:15:19.168Z,59.17
2022-10-11T10:17:50.762Z,58.56
2022-10-11T10:20:25.444Z,59.30
2022-10-11T10:22:53.402Z,59.38
2022-10-11T10:25:33.200Z,59.39
2022-10-11T10:28:02.951Z,58.42
2022-10-11T10:30:35.247Z,58.22
2022-10-11T10:33:07.158Z,57.63
2022-10-11T10:35:49.286Z,58.04
2022-10-11T10:38:27.731Z,59.18
2022-10-11T10:41:01.356Z,58.61
2022-10-11T10:43:34.006Z,57.37
2022-10-11T10:46:18.686Z,57.21
2022-10-11T10:52:41.099Z,56.83
2022-10-11T10:55:13.803Z,55.65
2022-10-11T10:57:58.755Z,56.43
2022-10-11T11:01:00.123Z,55.71
2022-10-11T11:03:37.298Z,56.21
2022-10-11T11:06:13.341Z,56.47
2022-10-11T11:09:18.850Z,56.20
2022-10-11T11:11:52.682Z,55.34
2022-10-11T11:14:25.251Z,54.91
2022-10-11T11:17:17.441Z,55.77
2022-10-11T11:19:56.157Z,56.48
2022-10-11T11:22:57.444Z,55.38
2022-10-11T11:26:01.397Z,56.34
2022-10-11T11:28:43.502Z,55.59
2022-10-11T11:31:37.844Z,55.25
2022-10-11T11:34:22.285Z,55.03
2022-10-11T11:37:02.152Z,55.32
2022-10-11T11:39:40.188Z,55.56
2022-10-11T11:42:14.040Z,56.15
2022-10-11T11:44:46.191Z,56.98
2022-10-11T11:47:33.077Z,56.27
2022-10-11T11:50:17.779Z,57.10
2022-10-11T11:52:48.596Z,57.43
2022-10-11T11:55:43.052Z,56.96
2022-10-11T11:58:27.935Z,56.32
2022-10-11T12:01:26.480Z,56.65
2022-10-11T12:04:03.160Z,56.44
2022-10-11T12:06:37.920Z,56.95
2022-10-11T12:09:31.080Z,56.32
2022-10-11T12:12:04.040Z,56.34
2022-10-11T12:14:33.687Z,56.30
2022-10-11T12:17:14.478Z,56.06
2022-10-11T12:19:44.559Z,56.57
2022-10-11T12:22:28.600Z,56.59
2022-10-11T12:25:28.295Z,57.04
2022-10-11T12:27:57.602Z,57.08
2022-10-11T12:30:44.605Z,57.63
2022-10-11T12:33:23.882Z,57.94
2022-10-11T12:35:53.818Z,58.00
2022-10-11T12:38:35.972Z,57.76
2022-10-11T12:41:11.371Z,57.25
2022-10-11T12:43:50.558Z,57.96
2022-10-11T12:46:29.156Z,57.35
2022-10-11T12:49:20.198Z,58.25
2022-10-11T12:52:01.716Z,58.10
2022-10-11T12:54:55.717Z,58.49
2022-10-11T12:57:22.439Z,58.55
2022-10-11T12:59:49.950Z,59.53
2022-10-11T13:02:41.881Z,60.18
2022-10-11T13:05:32.089Z,59.76
2022-10-11T13:08:04.043Z,59.90
2022-10-11T13:10:46.204Z,59.78
2022-10-11T13:13:27.253Z,60.21
2022-10-11T13:15:57.496Z,60.44
2022-10-11T13:18:26.417Z,60.36
2022-10-11T13:20:53.731Z,60.17
2022-10-11T13:23:25.810Z,61.15
2022-10-11T13:25:54.155Z,60.26
2022-10-11T13:28:22.416Z,61.09
2022-10-11T13:31:00.447Z,60.53
2022-10-11T13:33:31.756Z,60.55
2022-10-11T13:36:04.924Z,59.97
2022-10-11T13:38:35.478Z,60.97
2022-10-11T13:41:05.318Z,60.19
2022-10-11T13:43:32.791Z,60.53
2022-10-11T13:46:02.106Z,61.30
2022-10-11T13:48:31.946Z,60.64
2022-10-11T13:51:28.312Z,60.61
2022-10-11T13:54:08.459Z,59.99
2022-10-11T13:56:50.402Z,60.57
2022-10-11T13:59:23.760Z,59.85
2022-10-11T14:01:58.031Z,59.39
2022-10-11T14:04:29.474Z,59.93
2022-10-11T14:07:01.276Z,59.73
2022-10-11T14:09:31.561Z,59.73
2022-10-11T14:12:28.917Z,59.98
2022-10-11T14:14:55.712Z,59.92
2022-10-11T14:17:36.324Z,61.12
2022-10-11T14:20:12.076Z,61.38
2022-10-11T14:22:39.727Z,61.41
2022-10-11T14:25:06.882Z,61.71
2022-10-11T14:27:33.915Z,61.94
2022-10-11T14:30:24.014Z,62.22
2022-10-11T14:32:50.216Z,61.71
2022-10-11T14:35:26.515Z,61.62
2022-10-11T14:37:54.435Z,62.28
2022-10-11T14:40:27.377Z,61.48
2022-10-11T14:42:54.801Z,61.55
2022-10-11T14:45:21.853Z,61.96
2022-10-11T14:47:49.897Z,62.18
2022-10-11T14:50:27.455Z,61.93
2022-10-11T14:52:55.134Z,61.89
2022-10-11T14:55:22.593Z,62.00
2022-10-11T14:57:49.765Z,62.21
2022-10-11T15:00:19.930Z,61.85
2022-10-11T15:02:47.245Z,62.47
2022-10-11T15:05:14.579Z,62.70
2022-10-11T15:07:41.809Z,62.88
2022-10-11T15:10:22.492Z,62.92
2022-10-11T15:12:51.434Z,63.16
2022-10-11T15:15:20.154Z,63.21
2022-10-11T15:17:54.277Z,63.22
2022-10-11T15:20:34.165Z,63.10
2022-10-11T15:23:02.018Z,63.31
2022-10-11T15:25:29.594Z,63.78
2022-10-11T15:27:57.274Z,63.70
2022-10-11T15:30:28.256Z,63.64
2022-10-11T15:32:55.198Z,63.42
2022-10-11T15:35:23.569Z,64.02
2022-10-11T15:37:55.844Z,64.15
2022-10-11T15:40:31.434Z,63.74
2022-10-11T15:42:58.713Z,63.52
2022-10-11T15:45:26.235Z,64.46
2022-10-11T15:47:53.294Z,64.24
2022-10-11T15:50:20.249Z,65.11
2022-10-11T15:52:47.120Z,66.13
2022-10-11T15:55:13.871Z,66.33
2022-10-11T15:57:41.216Z,66.84
2022-10-11T16:00:08.671Z,66.84
2022-10-11T16:02:35.725Z,67.16
2022-10-11T16:05:03.337Z,67.21
2022-10-11T16:07:30.166Z,67.19
2022-10-11T16:09:59.044Z,67.51
2022-10-11T16:12:26.316Z,66.92
2022-10-11T16:14:53.557Z,67.29
2022-10-11T16:17:20.496Z,67.32
2022-10-11T16:19:47.592Z,67.94
2022-10-11T16:22:14.413Z,67.88
2022-10-11T16:24:41.156Z,68.28
2022-10-11T16:27:08.115Z,67.71
2022-10-11T16:29:35.080Z,67.88
2022-10-11T16:32:02.099Z,66.96
2022-10-11T16:34:29.081Z,67.38
2022-10-11T16:36:56.036Z,68.68
2022-10-11T16:39:22.824Z,69.63
2022-10-11T16:41:50.151Z,69.57
2022-10-11T16:44:19.634Z,69.85
2022-10-11T16:46:48.095Z,70.15
2022-10-11T16:49:16.758Z,70.38
2022-10-11T16:51:43.728Z,70.64
2022-10-11T16:54:10.608Z,70.28
2022-10-11T16:56:40.034Z,70.68
2022-10-11T16:59:07.534Z,70.50
2022-10-11T17:01:34.489Z,70.59
2022-10-11T17:04:01.874Z,70.74
2022-10-11T17:06:28.710Z,71.31
2022-10-11T17:08:55.691Z,71.68
2022-10-11T17:11:23.232Z,72.37
2022-10-11T17:13:52.258Z,72.83
2022-10-11T17:16:20.444Z,73.76
2022-10-11T17:18:47.767Z,74.73
2022-10-11T17:21:24.338Z,75.03
2022-10-11T17:23:57.992Z,75.06
2022-10-11T17:26:27.057Z,75.47
2022-10-11T17:28:56.235Z,75.52
2022-10-11T17:31:24.609Z,75.78
2022-10-11T17:33:51.719Z,75.47
2022-10-11T17:36:26.773Z,75.95
2022-10-11T17:38:54.572Z,76.10
2022-10-11T17:41:21.565Z,76.48
2022-10-11T17:43:48.724Z,77.09
2022-10-11T17:46:17.757Z,77.53
2022-10-11T17:48:44.661Z,77.55
2022-10-11T17:51:17.408Z,77.95
2022-10-11T17:53:45.205Z,78.22
2022-10-11T17:56:15.114Z,78.97
2022-10-11T17:58:42.596Z,79.16
2022-10-11T18:01:12.928Z,79.64
2022-10-11T18:03:40.317Z,79.96
2022-10-11T18:06:09.363Z,80.34
2022-10-11T18:08:40.569Z,80.05
2022-10-11T18:11:14.376Z,80.38
2022-10-11T18:13:42.169Z,80.01
2022-10-11T18:16:10.104Z,80.13
2022-10-11T18:18:42.609Z,80.48
2022-10-11T18:21:10.471Z,80.37
2022-10-11T18:23:37.449Z,80.93
2022-10-11T18:26:11.861Z,80.83
2022-10-11T18:28:39.637Z,81.38
2022-10-11T18:31:12.992Z,81.45
2022-10-11T18:33:41.923Z,81.07
2022-10-11T18:36:09.994Z,81.17
2022-10-11T18:38:36.924Z,81.10
2022-10-11T18:41:09.543Z,80.94
2022-10-11T18:43:37.689Z,81.44
2022-10-11T18:46:13.956Z,81.57
2022-10-11T18:48:42.296Z,81.08
2022-10-11T18:51:12.601Z,80.64
2022-10-11T18:53:39.632Z,80.30
2022-10-11T18:56:09.890Z,80.62
2022-10-11T18:58:37.636Z,81.17
2022-10-11T19:01:09.511Z,81.15
2022-10-11T19:03:37.234Z,81.48
2022-10-11T19:06:09.338Z,82.20
2022-10-11T19:08:36.920Z,82.39
2022-10-11T19:11:08.516Z,82.80
2022-10-11T19:13:36.394Z,82.87
2022-10-11T19:16:08.468Z,82.93
2022-10-11T19:18:40.431Z,83.02
2022-10-11T19:21:12.453Z,83.55
2022-10-11T19:23:41.899Z,83.67
2022-10-11T19:26:21.000Z,84.12
2022-10-11T19:28:53.800Z,84.27
2022-10-11T19:31:20.843Z,84.05
2022-10-11T19:33:47.806Z,83.99
2022-10-11T19:36:14.964Z,83.85
2022-10-11T19:38:46.916Z,83.21
2022-10-11T19:41:14.954Z,82.75
2022-10-11T19:43:41.974Z,82.69
2022-10-11T19:46:11.234Z,83.06
2022-10-11T19:48:39.335Z,83.20
2022-10-11T19:51:12.034Z,83.16
2022-10-11T19:53:39.196Z,83.01
2022-10-11T19:56:08.775Z,83.34
2022-10-11T19:58:35.939Z,83.39
2022-10-11T20:01:08.476Z,83.58
2022-10-11T20:03:36.114Z,83.71
2022-10-11T20:06:06.007Z,83.92
2022-10-11T20:08:33.959Z,84.25
2022-10-11T20:11:03.390Z,83.85
2022-10-11T20:13:34.722Z,83.40
2022-10-11T20:16:07.036Z,83.06
2022-10-11T20:18:34.299Z,82.67
2022-10-11T20:21:04.078Z,81.90
2022-10-11T20:23:33.030Z,80.69
2022-10-11T20:26:07.960Z,80.45
2022-10-11T20:28:36.078Z,80.45
2022-10-11T20:31:04.874Z,81.16
2022-10-11T20:33:32.672Z,81.86
2022-10-11T20:36:05.410Z,82.26
2022-10-11T20:38:33.690Z,81.79
2022-10-11T20:41:04.837Z,82.39
2022-10-11T20:43:31.821Z,82.41
2022-10-11T20:46:02.878Z,82.97
2022-10-11T20:48:30.578Z,83.77
2022-10-11T20:50:58.008Z,83.44
2022-10-11T20:53:25.692Z,83.14
2022-10-11T20:55:53.367Z,83.01
2022-10-11T20:58:21.357Z,82.68
2022-10-11T21:00:49.076Z,82.40
2022-10-11T21:03:16.937Z,83.41
2022-10-11T21:05:44.209Z,83.40
2022-10-11T21:08:11.471Z,83.70
2022-10-11T21:10:38.811Z,84.27
2022-10-11T21:13:06.238Z,84.56
2022-10-11T21:15:33.351Z,83.68
2022-10-11T21:18:00.076Z,83.83
2022-10-11T21:20:27.116Z,84.19
2022-10-11T21:22:53.853Z,83.83
2022-10-11T21:25:20.895Z,84.18
2022-10-11T21:27:47.888Z,84.39
2022-10-11T21:30:14.837Z,84.50
2022-10-11T21:32:41.836Z,84.54
2022-10-11T21:35:09.799Z,84.10
2022-10-11T21:37:37.002Z,84.33
2022-10-11T21:40:04.596Z,84.27
2022-10-11T21:42:31.602Z,84.08
2022-10-11T21:44:58.358Z,83.83
2022-10-11T21:47:25.129Z,83.65
2022-10-11T21:49:52.374Z,83.46
2022-10-11T21:52:19.615Z,82.54
2022-10-11T21:54:46.516Z,83.81
2022-10-11T21:57:13.720Z,83.73
2022-10-11T21:59:40.517Z,83.99
2022-10-11T22:02:07.461Z,84.11
2022-10-11T22:04:34.494Z,84.17
2022-10-11T22:07:01.766Z,84.50
2022-10-11T22:09:28.798Z,84.32
2022-10-11T22:11:57.017Z,83.92
2022-10-11T22:14:24.551Z,83.74
2022-10-11T22:16:51.413Z,83.38
2022-10-11T22:19:18.236Z,83.46
2022-10-11T22:21:45.518Z,83.24
2022-10-11T22:24:12.798Z,83.86
2022-10-11T22:26:39.713Z,83.82
2022-10-11T22:29:06.689Z,83.52
2022-10-11T22:31:35.483Z,83.70
2022-10-11T22:34:02.641Z,84.50
2022-10-11T22:36:30.129Z,84.67
2022-10-11T22:38:57.511Z,84.86
2022-10-11T22:41:24.437Z,84.81
2022-10-11T22:43:51.837Z,84.49
2022-10-11T22:46:19.012Z,84.68
2022-10-11T22:48:46.120Z,84.76
2022-10-11T22:51:13.040Z,84.46
2022-10-11T22:53:39.788Z,84.61
2022-10-11T22:56:07.088Z,84.54
2022-10-11T22:58:34.570Z,84.09
2022-10-11T23:01:13.994Z,83.89
2022-10-11T23:03:41.092Z,82.70
2022-10-11T23:06:08.461Z,82.85
2022-10-11T23:08:35.593Z,83.68
2022-10-11T23:11:06.662Z,84.08
2022-10-11T23:13:33.703Z,83.70
2022-10-11T23:16:09.472Z,83.57
2022-10-11T23:18:36.459Z,83.28
2022-10-11T23:21:04.299Z,83.16
2022-10-11T23:23:31.508Z,82.85
2022-10-11T23:26:03.085Z,83.16
2022-10-11T23:28:29.956Z,83.43
2022-10-11T23:30:56.994Z,83.11
2022-10-11T23:33:24.212Z,83.53
2022-10-11T23:35:51.207Z,83.01
2022-10-11T23:38:18.440Z,82.74
2022-10-11T23:40:45.243Z,82.42
2022-10-11T23:43:12.147Z,82.65
2022-10-11T23:45:39.101Z,82.83
2022-10-11T23:48:06.129Z,82.34
2022-10-11T23:50:32.919Z,82.35
2022-10-11T23:53:00.086Z,82.71
2022-10-11T23:55:26.873Z,82.89
2022-10-11T23:57:53.929Z,83.48
